logo
Search for airport 
image banner adimage banner adimage banner ad
image banner ad

MMHPH - Hotel Palmas

Located in San Andres Cholula, Mexico

ICAO - , IATA -

Data provided by Airmate  

General information

Coordinates: N19°1'38" W98°13'47"
Elevation is 7040 feet MSL.
Magnetic variation is 3° East
View others Airports in Puebla

Operational data

Special qualification required
Current time UTC:
Current local time:
METAR: MMPB 280051Z 15010KT 7SM FEW220 25/02 A3029 RMK 8/002 HZY CU
TAF: TAF MMPB 271623Z 2718/2818 14015KT P6SM SCT220 FM272100 14012KT P6SM SCT015CB PROB40 2722/2801 6SM RA BKN015CB BKN220 FM280600 04005KT P6SM SKC FM281200 02008KT P6SM SCT220
View NOTAMs / SUP AIP / TFR affecting this airport [VIEW]
Communications frequencies: [VIEW]

Runways:

Airport contact information

Address: San Andres Cholula Mexico

Satellite view of MMHPH